Time;durP1;ratioP1;P1;durP2;ratioP2;P2;SDS_P1;SDS_P2;PMS_P1;PMS_P2;Temp;Humidity;BMP_temperature;BMP_pressure;BME280_temperature;BME280_humidity;BME280_pressure;Samples;Min_cycle;Max_cycle;Signal;HPM_P1;HPM_P2
2022/08/16 00:00:50;;;;;;;14.60;13.20;;;26.70;54.40;;;;;;4912155;52;21052;-26
2022/08/16 00:05:51;;;;;;;15.07;13.52;;;26.70;54.40;;;;;;4928998;52;21059;-28
2022/08/16 00:10:52;;;;;;;13.68;12.37;;;26.70;54.50;;;;;;4947814;52;20995;-27
2022/08/16 00:15:52;;;;;;;13.27;12.00;;;26.70;55.10;;;;;;4971502;52;21008;-27
2022/08/16 00:20:53;;;;;;;13.98;12.57;;;26.70;54.50;;;;;;4936013;52;20974;-34
2022/08/16 00:25:54;;;;;;;13.25;11.95;;;26.70;54.50;;;;;;4948973;52;21050;-35
2022/08/16 00:30:55;;;;;;;14.15;12.77;;;26.70;54.50;;;;;;4910854;52;20992;-32
2022/08/16 00:35:56;;;;;;;14.07;12.57;;;26.70;54.60;;;;;;4937430;52;21117;-35
2022/08/16 00:40:59;;;;;;;14.63;13.20;;;26.70;54.70;;;;;;4909939;56;21544;-32
2022/08/16 00:46:35;;;;;;;13.77;12.45;;;26.70;55.00;;;;;;5103161;52;21090;-26
2022/08/16 00:51:36;;;;;;;13.57;12.20;;;26.70;54.70;;;;;;4929451;52;21003;-29
2022/08/16 00:56:39;;;;;;;13.02;11.80;;;26.70;54.60;;;;;;4980470;52;20991;-34
2022/08/16 01:01:41;;;;;;;13.05;11.75;;;26.70;54.70;;;;;;4960732;52;21047;-25
2022/08/16 01:06:42;;;;;;;13.00;11.80;;;26.70;54.70;;;;;;4942591;52;21039;-26
2022/08/16 01:11:44;;;;;;;13.57;12.18;;;26.70;54.70;;;;;;4935080;52;21027;-31
2022/08/16 01:16:46;;;;;;;13.30;11.95;;;26.70;54.80;;;;;;4923521;52;21004;-36
2022/08/16 01:22:28;;;;;;;12.63;11.43;;;26.70;54.80;;;;;;4922141;52;21110;-26
2022/08/16 01:27:34;;;;;;;12.32;11.23;;;26.70;54.90;;;;;;4933533;52;21015;-28
2022/08/16 01:32:41;;;;;;;12.80;11.50;;;26.70;54.80;;;;;;4967760;52;21027;-28
2022/08/16 01:37:45;;;;;;;12.93;11.63;;;26.70;54.90;;;;;;4934155;52;21525;-31
2022/08/16 01:42:48;;;;;;;12.48;11.25;;;26.70;54.90;;;;;;4944840;52;21019;-35
2022/08/16 01:47:51;;;;;;;12.37;11.18;;;26.70;54.80;;;;;;4959162;52;21099;-25
2022/08/16 01:52:53;;;;;;;12.15;11.05;;;26.70;54.80;;;;;;4935524;52;20995;-37
2022/08/16 01:57:54;;;;;;;11.88;10.85;;;26.70;54.90;;;;;;4910150;56;21383;-37
2022/08/16 02:02:55;;;;;;;12.35;11.15;;;26.70;54.80;;;;;;4927821;52;21392;-32
2022/08/16 02:07:56;;;;;;;11.65;10.48;;;26.70;54.90;;;;;;4934364;52;21461;-32
2022/08/16 02:12:58;;;;;;;12.25;11.05;;;26.70;55.00;;;;;;4930419;52;22318;-33
2022/08/16 02:18:00;;;;;;;11.90;10.70;;;26.70;54.90;;;;;;4979811;52;21878;-36
2022/08/16 02:23:02;;;;;;;11.75;10.65;;;26.70;55.00;;;;;;4914354;52;21015;-30
2022/08/16 02:28:04;;;;;;;11.65;10.48;;;26.70;55.00;;;;;;4963595;52;20971;-28
2022/08/16 02:33:06;;;;;;;12.13;10.93;;;26.70;55.00;;;;;;4920631;52;21445;-28
2022/08/16 02:38:07;;;;;;;12.13;11.00;;;26.70;55.00;;;;;;4934922;52;21592;-31
2022/08/16 02:43:07;;;;;;;11.73;10.63;;;26.70;55.10;;;;;;4929486;52;22302;-34
2022/08/16 02:48:09;;;;;;;11.35;10.25;;;26.70;55.10;;;;;;4923569;52;21004;-28
2022/08/16 02:53:10;;;;;;;11.77;10.75;;;26.70;55.10;;;;;;4937797;52;21465;-30
2022/08/16 02:58:11;;;;;;;11.35;10.25;;;26.70;55.10;;;;;;4950597;52;21449;-30
2022/08/16 03:03:12;;;;;;;11.25;10.10;;;26.70;55.60;;;;;;4922166;52;20999;-28
2022/08/16 03:08:13;;;;;;;11.40;10.30;;;26.70;55.00;;;;;;4912165;52;20984;-30
2022/08/16 03:13:13;;;;;;;11.70;10.60;;;26.70;55.10;;;;;;4924827;52;21493;-34
2022/08/16 03:18:14;;;;;;;10.98;9.98;;;26.70;55.10;;;;;;4910377;52;20975;-35
2022/08/16 03:23:15;;;;;;;11.38;10.38;;;26.70;55.10;;;;;;4909748;56;21038;-36
2022/08/16 03:28:16;;;;;;;11.55;10.50;;;26.70;55.00;;;;;;4956621;52;22170;-30
2022/08/16 03:33:17;;;;;;;11.60;10.40;;;26.70;55.00;;;;;;4925279;52;20999;-29
2022/08/16 03:38:19;;;;;;;11.43;10.25;;;26.70;55.00;;;;;;4925366;52;20976;-34
2022/08/16 03:43:19;;;;;;;10.98;9.88;;;26.70;55.00;;;;;;4939175;52;21007;-28
2022/08/16 03:48:23;;;;;;;10.40;9.40;;;26.70;55.00;;;;;;4959534;52;20975;-27
2022/08/16 03:53:24;;;;;;;10.38;9.48;;;26.70;54.90;;;;;;4943806;52;21023;-35
2022/08/16 03:58:25;;;;;;;10.93;9.93;;;26.60;54.80;;;;;;4916617;52;21564;-30
2022/08/16 04:03:26;;;;;;;10.35;9.35;;;26.60;54.80;;;;;;4959079;52;20996;-29
2022/08/16 04:08:30;;;;;;;10.43;9.38;;;26.60;54.80;;;;;;4943518;52;21576;-30
2022/08/16 04:13:30;;;;;;;11.35;10.25;;;26.60;54.70;;;;;;4923564;52;21161;-32
2022/08/16 04:18:31;;;;;;;10.75;9.75;;;26.60;54.70;;;;;;4914203;52;21039;-29
2022/08/16 04:23:32;;;;;;;10.73;9.65;;;26.60;54.70;;;;;;4946988;52;21457;-27
2022/08/16 04:28:34;;;;;;;10.63;9.68;;;26.60;54.70;;;;;;4910256;52;20967;-34
2022/08/16 04:33:34;;;;;;;10.45;9.38;;;26.60;54.70;;;;;;4910245;56;21019;-34
2022/08/16 04:38:35;;;;;;;9.95;9.05;;;26.60;54.70;;;;;;4920932;52;20975;-35
2022/08/16 04:43:37;;;;;;;10.50;9.50;;;26.60;54.70;;;;;;4922978;52;20991;-33
2022/08/16 04:48:40;;;;;;;10.43;9.43;;;26.60;54.70;;;;;;4937172;52;21484;-31
2022/08/16 04:53:44;;;;;;;10.48;9.45;;;26.60;54.70;;;;;;4919483;52;21509;-34
2022/08/16 04:58:45;;;;;;;10.52;9.48;;;26.60;54.60;;;;;;4935236;52;21525;-33
2022/08/16 05:03:46;;;;;;;10.68;9.52;;;26.60;54.50;;;;;;4922732;52;21477;-31
2022/08/16 05:08:47;;;;;;;10.10;9.10;;;26.60;54.50;;;;;;4911284;52;21017;-36
2022/08/16 05:13:48;;;;;;;9.85;8.95;;;26.60;54.60;;;;;;4927556;52;21006;-37
2022/08/16 05:18:55;;;;;;;10.18;9.13;;;26.60;54.50;;;;;;4910090;56;21071;-33
2022/08/16 05:23:55;;;;;;;9.98;9.07;;;26.60;54.50;;;;;;4929524;52;21038;-31
2022/08/16 05:28:58;;;;;;;10.18;9.18;;;26.60;54.50;;;;;;4910037;53;20971;-30
2022/08/16 05:34:01;;;;;;;10.05;9.15;;;26.50;54.50;;;;;;4931256;52;21089;-32
2022/08/16 05:39:07;;;;;;;9.80;8.90;;;26.50;54.30;;;;;;4928665;52;21023;-36
2022/08/16 05:44:07;;;;;;;11.00;9.27;;;26.50;54.40;;;;;;4934286;52;21023;-27
2022/08/16 05:49:08;;;;;;;10.95;9.82;;;26.50;54.40;;;;;;4939981;52;21551;-30
2022/08/16 05:54:12;;;;;;;10.07;9.10;;;26.60;54.50;;;;;;4916747;52;22261;-27
2022/08/16 05:59:14;;;;;;;11.20;9.77;;;26.50;54.40;;;;;;4926781;52;21031;-29
2022/08/16 06:04:16;;;;;;;10.98;9.88;;;26.50;54.40;;;;;;4926050;52;21004;-30
2022/08/16 06:09:17;;;;;;;10.75;9.65;;;26.50;54.40;;;;;;4949323;52;20991;-29
2022/08/16 06:14:18;;;;;;;10.88;9.30;;;26.50;54.40;;;;;;4912423;52;21149;-29
2022/08/16 06:19:19;;;;;;;11.90;9.65;;;26.50;54.40;;;;;;4918158;52;21042;-30
2022/08/16 06:24:20;;;;;;;11.98;10.10;;;26.60;54.50;;;;;;4912207;52;21007;-29
2022/08/16 06:29:21;;;;;;;10.38;9.38;;;26.50;54.50;;;;;;4910300;56;21051;-29
2022/08/16 06:34:21;;;;;;;10.75;9.48;;;26.50;54.40;;;;;;4915183;52;20988;-27
2022/08/16 06:39:22;;;;;;;11.65;10.25;;;26.50;54.40;;;;;;4914171;52;20988;-28
2022/08/16 06:44:23;;;;;;;11.27;9.88;;;26.50;54.40;;;;;;4943234;52;21019;-29
2022/08/16 06:49:24;;;;;;;11.18;10.07;;;26.50;54.40;;;;;;4910324;52;20976;-29
2022/08/16 06:54:25;;;;;;;12.23;10.23;;;26.50;54.40;;;;;;4910385;52;20987;-41
2022/08/16 06:59:26;;;;;;;34.45;25.05;;;26.50;54.40;;;;;;4908456;56;21457;-34
2022/08/16 07:04:30;;;;;;;44.22;27.75;;;26.50;54.60;;;;;;4947733;52;21011;-36
2022/08/16 07:09:31;;;;;;;34.58;21.65;;;26.50;55.00;;;;;;4909289;56;20991;-37
2022/08/16 07:14:32;;;;;;;35.30;23.30;;;26.50;55.50;;;;;;4939802;52;21070;-34
2022/08/16 07:19:33;;;;;;;35.85;24.10;;;26.50;55.60;;;;;;4909853;56;21034;-28
2022/08/16 07:24:34;;;;;;;34.17;23.33;;;26.50;55.30;;;;;;4909518;52;21015;-31
2022/08/16 07:29:36;;;;;;;35.00;24.10;;;26.60;55.60;;;;;;4909031;52;20995;-34
2022/08/16 07:34:37;;;;;;;36.30;23.80;;;26.60;55.50;;;;;;4912075;52;21600;-34
2022/08/16 07:39:38;;;;;;;33.75;24.12;;;26.50;55.40;;;;;;5067266;52;21047;-30
2022/08/16 07:44:39;;;;;;;35.85;26.52;;;26.60;55.60;;;;;;4907927;54;21064;-33
2022/08/16 07:49:40;;;;;;;34.90;25.23;;;26.60;55.60;;;;;;4912446;52;20991;-28
2022/08/16 07:54:41;;;;;;;37.42;24.33;;;26.60;55.40;;;;;;4933668;52;21509;-34
2022/08/16 07:59:44;;;;;;;31.50;24.65;;;26.60;55.40;;;;;;4913244;52;20984;-37
2022/08/16 08:04:46;;;;;;;31.05;25.17;;;26.70;55.60;;;;;;4933536;52;21548;-29
2022/08/16 08:09:47;;;;;;;33.92;24.02;;;26.70;55.50;;;;;;4908878;56;21465;-27
2022/08/16 08:14:48;;;;;;;32.10;25.12;;;26.70;55.40;;;;;;4921228;52;21595;-26
2022/08/16 08:19:50;;;;;;;30.67;23.33;;;26.80;55.30;;;;;;4921464;52;21015;-26
2022/08/16 08:24:51;;;;;;;31.65;24.45;;;26.80;55.20;;;;;;4926423;52;20972;-28
2022/08/16 08:29:52;;;;;;;30.62;24.20;;;26.80;55.10;;;;;;4926388;52;20988;-30
2022/08/16 08:34:54;;;;;;;31.08;24.05;;;26.80;55.00;;;;;;4910304;53;21085;-26
2022/08/16 08:39:55;;;;;;;29.00;23.77;;;26.80;54.90;;;;;;4933163;52;21038;-30
2022/08/16 08:44:56;;;;;;;30.30;24.50;;;26.80;54.80;;;;;;4912800;52;21469;-27
2022/08/16 08:49:57;;;;;;;33.65;24.50;;;26.90;54.90;;;;;;4929990;52;21015;-33
2022/08/16 08:54:58;;;;;;;28.62;24.00;;;26.90;54.70;;;;;;4939594;52;21536;-29
2022/08/16 08:59:59;;;;;;;30.80;25.70;;;26.90;54.70;;;;;;4915303;52;20980;-32
2022/08/16 09:05:03;;;;;;;30.33;24.92;;;26.90;54.50;;;;;;4967862;52;21035;-28
2022/08/16 09:10:06;;;;;;;30.95;25.75;;;26.90;54.50;;;;;;4974204;52;21015;-27
2022/08/16 09:15:10;;;;;;;30.62;24.70;;;26.90;54.40;;;;;;4934923;52;21070;-38
2022/08/16 09:20:13;;;;;;;29.67;24.30;;;26.90;54.40;;;;;;4946923;52;20979;-36
2022/08/16 09:25:14;;;;;;;33.97;25.83;;;26.90;54.30;;;;;;4916983;52;21078;-32
2022/08/16 09:30:15;;;;;;;39.60;28.42;;;26.90;53.80;;;;;;4917674;52;21564;-33
2022/08/16 09:35:15;;;;;;;41.05;27.58;;;26.90;54.10;;;;;;4965879;52;21777;-35
2022/08/16 09:40:17;;;;;;;38.30;26.33;;;26.90;54.00;;;;;;4919439;52;21054;-37
2022/08/16 09:45:19;;;;;;;37.38;26.12;;;26.90;54.00;;;;;;4909367;53;21094;-35
2022/08/16 09:50:21;;;;;;;37.72;25.80;;;26.90;54.20;;;;;;4947848;52;21464;-31
2022/08/16 09:55:22;;;;;;;36.13;24.92;;;26.90;54.40;;;;;;4950541;52;22367;-34
2022/08/16 10:00:25;;;;;;;36.33;25.83;;;27.00;55.00;;;;;;4907244;53;21047;-31
2022/08/16 10:05:26;;;;;;;38.13;28.10;;;27.00;55.30;;;;;;4908842;56;21505;-34
2022/08/16 10:10:27;;;;;;;42.65;32.70;;;27.00;55.50;;;;;;4929672;52;21059;-36
2022/08/16 10:15:28;;;;;;;46.00;34.80;;;27.10;55.80;;;;;;4946982;52;21491;-34
2022/08/16 10:20:33;;;;;;;46.30;34.83;;;27.10;55.90;;;;;;4941640;52;21026;-29
2022/08/16 10:25:39;;;;;;;52.40;36.38;;;27.10;56.20;;;;;;4922014;52;21508;-31
2022/08/16 10:30:42;;;;;;;58.25;41.42;;;27.10;56.40;;;;;;4930808;52;20970;-31
2022/08/16 10:35:44;;;;;;;58.72;42.10;;;27.10;56.50;;;;;;4946268;52;21592;-31
2022/08/16 10:40:45;;;;;;;53.90;39.25;;;27.20;56.80;;;;;;4916193;52;21399;-34
2022/08/16 10:45:47;;;;;;;54.58;40.80;;;27.20;56.90;;;;;;4926658;52;21564;-34
2022/08/16 10:50:48;;;;;;;46.95;34.03;;;27.20;56.50;;;;;;4916523;52;21035;-30
2022/08/16 10:55:49;;;;;;;39.45;29.87;;;27.20;56.20;;;;;;4918233;52;21007;-33
2022/08/16 11:00:50;;;;;;;37.10;28.45;;;27.20;55.70;;;;;;4909759;56;21458;-34
2022/08/16 11:05:50;;;;;;;35.70;26.62;;;27.20;55.50;;;;;;4908410;56;21011;-32
2022/08/16 11:10:51;;;;;;;36.15;28.17;;;27.20;55.20;;;;;;4916825;52;21012;-33
2022/08/16 11:15:56;;;;;;;38.17;29.23;;;27.30;55.00;;;;;;4917533;52;21865;-34
2022/08/16 11:20:58;;;;;;;39.40;29.05;;;27.30;54.90;;;;;;4940102;52;21437;-33
2022/08/16 11:25:58;;;;;;;37.60;28.50;;;27.30;54.80;;;;;;5280978;52;21474;-33
2022/08/16 11:30:59;;;;;;;37.92;28.17;;;27.30;54.80;;;;;;4913590;52;20979;-33
2022/08/16 11:36:01;;;;;;;37.75;28.15;;;27.30;54.80;;;;;;4912456;52;21071;-31
2022/08/16 11:41:02;;;;;;;38.88;28.33;;;27.30;54.70;;;;;;4925778;52;21433;-27
2022/08/16 11:46:07;;;;;;;37.83;28.70;;;27.30;54.70;;;;;;4925937;52;21035;-36
2022/08/16 11:51:07;;;;;;;35.58;28.42;;;27.30;54.60;;;;;;4931985;52;20991;-26
2022/08/16 11:56:08;;;;;;;37.17;28.00;;;27.30;54.50;;;;;;4937039;52;20986;-27
2022/08/16 12:01:09;;;;;;;39.42;29.75;;;27.30;55.10;;;;;;4919787;52;21485;-32
2022/08/16 12:06:17;;;;;;;50.35;34.17;;;27.30;54.40;;;;;;4931341;52;21461;-27
2022/08/16 12:11:18;;;;;;;40.85;32.83;;;27.30;53.90;;;;;;4908855;56;21583;-35
2022/08/16 12:16:19;;;;;;;43.45;32.85;;;27.30;54.00;;;;;;4923608;52;21004;-28
2022/08/16 12:21:21;;;;;;;42.10;33.10;;;27.30;54.00;;;;;;4924043;52;20975;-27
2022/08/16 12:26:22;;;;;;;40.40;32.47;;;27.40;54.00;;;;;;4943830;52;21485;-34
2022/08/16 12:31:24;;;;;;;41.95;31.42;;;27.30;53.70;;;;;;4909460;56;21612;-35
2022/08/16 12:36:26;;;;;;;35.58;29.48;;;27.40;53.70;;;;;;4944593;52;21458;-34
2022/08/16 12:41:27;;;;;;;38.13;29.65;;;27.30;53.70;;;;;;4919835;52;21874;-32
2022/08/16 12:46:28;;;;;;;42.05;32.17;;;27.40;53.70;;;;;;4946269;52;21758;-29
2022/08/16 12:51:38;;;;;;;42.78;35.25;;;27.40;53.30;;;;;;4939746;52;21119;-26
2022/08/16 12:56:39;;;;;;;45.08;37.42;;;27.40;53.10;;;;;;4919549;52;20964;-30
2022/08/16 13:01:40;;;;;;;43.30;35.63;;;27.40;53.00;;;;;;4910687;56;21014;-29
2022/08/16 13:06:43;;;;;;;42.35;34.53;;;27.40;52.90;;;;;;4956847;52;21533;-25
2022/08/16 13:11:51;;;;;;;37.55;33.25;;;27.50;53.00;;;;;;4917141;52;21676;-25
2022/08/16 13:16:51;;;;;;;38.22;31.87;;;27.50;53.10;;;;;;4946427;52;21569;-25
2022/08/16 13:21:52;;;;;;;40.50;33.10;;;27.40;53.30;;;;;;4914716;52;20995;-25
2022/08/16 13:26:53;;;;;;;38.13;33.05;;;27.50;53.20;;;;;;4919158;52;20995;-26
2022/08/16 13:31:54;;;;;;;39.22;31.00;;;27.50;53.10;;;;;;4968053;52;21015;-26
2022/08/16 13:36:55;;;;;;;35.67;28.30;;;27.50;53.00;;;;;;4914576;52;20999;-26
2022/08/16 13:41:55;;;;;;;36.72;28.35;;;27.50;52.90;;;;;;4933252;52;21047;-35
2022/08/16 13:46:56;;;;;;;34.40;28.90;;;27.50;52.80;;;;;;4910346;52;20993;-27
2022/08/16 13:51:57;;;;;;;40.65;32.28;;;27.50;52.80;;;;;;4916232;52;21287;-32
2022/08/16 13:56:59;;;;;;;38.25;32.38;;;27.60;52.70;;;;;;4910267;52;21512;-27
2022/08/16 14:02:04;;;;;;;37.55;30.55;;;27.60;52.60;;;;;;4915452;52;21517;-26
2022/08/16 14:07:08;;;;;;;36.47;29.48;;;27.60;52.60;;;;;;4912893;52;21604;-26
2022/08/16 14:12:25;;;;;;;36.78;27.75;;;27.60;52.50;;;;;;4910483;52;21152;-33
2022/08/16 14:17:28;;;;;;;37.10;28.73;;;27.60;52.30;;;;;;4932113;52;20987;-26
2022/08/16 14:22:33;;;;;;;35.55;27.98;;;27.50;52.50;;;;;;4936419;52;21050;-27
2022/08/16 14:27:34;;;;;;;33.80;28.00;;;27.50;52.70;;;;;;4920472;52;22286;-31
2022/08/16 14:32:36;;;;;;;33.78;27.02;;;27.40;52.90;;;;;;4953928;52;21007;-32
2022/08/16 14:37:38;;;;;;;30.40;26.55;;;27.40;53.00;;;;;;4925969;52;21513;-34
2022/08/16 14:42:39;;;;;;;31.05;26.52;;;27.40;53.10;;;;;;4917229;52;21031;-33
2022/08/16 14:47:40;;;;;;;32.00;27.30;;;27.30;53.20;;;;;;4914223;52;20995;-28
2022/08/16 14:52:44;;;;;;;30.58;25.70;;;27.40;53.40;;;;;;4910309;53;21003;-27
2022/08/16 14:57:45;;;;;;;31.37;26.05;;;27.30;53.40;;;;;;4919580;52;21011;-27
2022/08/16 15:02:51;;;;;;;29.45;24.90;;;27.30;53.50;;;;;;4933879;52;20987;-27
2022/08/16 15:07:52;;;;;;;29.45;24.70;;;27.20;53.50;;;;;;4929375;52;21587;-28
2022/08/16 15:12:54;;;;;;;29.92;25.02;;;27.20;53.60;;;;;;4912227;52;21071;-26
2022/08/16 15:17:55;;;;;;;28.98;24.75;;;27.20;53.70;;;;;;4911071;52;21083;-26
2022/08/16 15:22:58;;;;;;;29.55;25.12;;;27.20;53.70;;;;;;4909874;52;21130;-30
2022/08/16 15:28:03;;;;;;;26.67;23.83;;;27.20;53.70;;;;;;4910411;56;21508;-25
2022/08/16 15:33:14;;;;;;;27.45;24.17;;;27.20;53.70;;;;;;4910083;56;21311;-27
2022/08/16 15:38:15;;;;;;;29.58;24.95;;;27.20;53.70;;;;;;4909602;56;21015;-30
2022/08/16 15:43:16;;;;;;;28.15;23.73;;;27.20;53.80;;;;;;4911060;52;21098;-34
2022/08/16 15:48:19;;;;;;;27.15;24.27;;;27.20;53.80;;;;;;4911664;52;20976;-26
2022/08/16 15:53:22;;;;;;;26.20;23.35;;;27.20;53.90;;;;;;4910787;56;21548;-32
2022/08/16 15:58:23;;;;;;;28.95;24.73;;;27.20;53.90;;;;;;4994666;52;21022;-29
2022/08/16 16:03:26;;;;;;;27.10;24.10;;;27.20;54.00;;;;;;4938304;52;20999;-28
2022/08/16 16:08:27;;;;;;;26.35;22.67;;;27.20;54.00;;;;;;4916632;52;21074;-29
2022/08/16 16:13:29;;;;;;;27.48;23.17;;;27.20;54.00;;;;;;4909476;56;21104;-27
2022/08/16 16:18:33;;;;;;;27.48;24.15;;;27.20;54.00;;;;;;4938836;52;20987;-30
2022/08/16 16:23:38;;;;;;;26.17;22.77;;;27.20;54.00;;;;;;4947607;52;21488;-28
2022/08/16 16:28:40;;;;;;;25.90;23.10;;;27.20;54.10;;;;;;4935666;52;21545;-32
2022/08/16 16:33:46;;;;;;;25.58;22.77;;;27.10;54.10;;;;;;4910887;53;21527;-27
2022/08/16 16:38:47;;;;;;;25.95;23.15;;;27.10;54.10;;;;;;4910040;53;21582;-26
2022/08/16 16:43:50;;;;;;;26.37;23.62;;;27.10;54.10;;;;;;4914614;52;21524;-28
2022/08/16 16:48:51;;;;;;;24.98;22.00;;;27.20;54.20;;;;;;4927224;52;21034;-28
2022/08/16 16:53:52;;;;;;;27.55;23.00;;;27.10;54.10;;;;;;4926371;52;21003;-28
2022/08/16 16:58:55;;;;;;;26.00;22.25;;;27.20;54.20;;;;;;4921704;52;21477;-26
2022/08/16 17:03:58;;;;;;;25.67;22.98;;;27.20;54.20;;;;;;4914128;52;21007;-28
2022/08/16 17:08:59;;;;;;;27.00;21.62;;;27.10;54.20;;;;;;4920454;52;20983;-29
2022/08/16 17:14:00;;;;;;;24.63;22.08;;;27.10;54.20;;;;;;4926162;52;20999;-27
2022/08/16 17:19:05;;;;;;;25.60;21.67;;;27.10;54.20;;;;;;4911036;56;21128;-29
2022/08/16 17:24:07;;;;;;;24.33;21.75;;;27.10;54.30;;;;;;4938000;52;21484;-32
2022/08/16 17:29:08;;;;;;;24.12;21.60;;;27.10;54.30;;;;;;4909977;56;21046;-26
2022/08/16 17:34:12;;;;;;;24.25;21.62;;;27.10;54.30;;;;;;4938551;52;21014;-31
2022/08/16 17:39:14;;;;;;;25.73;22.42;;;27.10;54.40;;;;;;4957330;52;20964;-26
2022/08/16 17:44:17;;;;;;;23.92;21.42;;;27.10;54.40;;;;;;4922544;52;21083;-26
2022/08/16 17:49:19;;;;;;;24.20;21.70;;;27.10;54.40;;;;;;4931190;52;21102;-26
2022/08/16 17:54:20;;;;;;;23.87;21.40;;;27.10;55.00;;;;;;4910237;56;21007;-30
2022/08/16 17:59:22;;;;;;;23.42;20.67;;;27.10;54.40;;;;;;4951905;52;22228;-27
2022/08/16 18:04:24;;;;;;;24.25;21.77;;;27.10;54.50;;;;;;4909515;56;21477;-29
2022/08/16 18:09:25;;;;;;;24.00;21.40;;;27.10;54.50;;;;;;4922653;52;21067;-25
2022/08/16 18:14:26;;;;;;;24.80;21.58;;;27.00;54.40;;;;;;4909043;53;21035;-30
2022/08/16 18:19:27;;;;;;;23.60;21.10;;;27.10;54.50;;;;;;4927167;52;21481;-28
2022/08/16 18:24:28;;;;;;;23.73;21.23;;;27.10;54.50;;;;;;4933624;52;21023;-27
2022/08/16 18:29:29;;;;;;;23.10;20.60;;;27.00;54.40;;;;;;4917944;52;20999;-32
2022/08/16 18:34:30;;;;;;;22.87;20.55;;;27.10;54.50;;;;;;4913770;52;21600;-32
2022/08/16 18:39:32;;;;;;;22.90;20.48;;;27.10;54.50;;;;;;4930588;52;21019;-28
2022/08/16 18:44:36;;;;;;;22.17;19.85;;;27.10;54.50;;;;;;4929003;52;21516;-28
2022/08/16 18:49:37;;;;;;;23.00;20.60;;;27.00;54.50;;;;;;4976473;52;21007;-26
2022/08/16 18:54:38;;;;;;;23.10;20.25;;;27.00;54.50;;;;;;4922486;52;21429;-25
2022/08/16 18:59:39;;;;;;;21.92;19.65;;;27.00;54.50;;;;;;4920617;52;21070;-33
2022/08/16 19:04:40;;;;;;;24.67;19.80;;;27.00;54.50;;;;;;4909225;56;20991;-31
2022/08/16 19:09:44;;;;;;;20.95;18.85;;;27.00;54.50;;;;;;4925561;52;21031;-31
2022/08/16 19:14:45;;;;;;;21.95;19.75;;;27.00;54.60;;;;;;4916482;52;20996;-30
2022/08/16 19:19:46;;;;;;;21.92;19.65;;;27.00;55.10;;;;;;4922273;52;21032;-27
2022/08/16 19:24:47;;;;;;;21.95;19.50;;;27.00;54.70;;;;;;4922981;52;21120;-28
2022/08/16 19:29:48;;;;;;;21.95;19.73;;;27.00;54.70;;;;;;4945240;52;20983;-28
2022/08/16 19:34:55;;;;;;;21.58;19.37;;;27.00;54.80;;;;;;4916745;52;21039;-25
2022/08/16 19:39:56;;;;;;;21.08;18.90;;;27.00;54.90;;;;;;4910013;56;21474;-26
2022/08/16 19:44:58;;;;;;;21.02;18.92;;;27.00;54.80;;;;;;4911827;52;21046;-25
2022/08/16 19:49:59;;;;;;;21.42;18.73;;;27.00;54.90;;;;;;4935595;52;21588;-29
2022/08/16 19:55:04;;;;;;;20.50;18.15;;;27.00;54.90;;;;;;4950420;52;22173;-25
2022/08/16 20:00:14;;;;;;;20.58;18.48;;;27.00;55.00;;;;;;4909876;56;21119;-35
2022/08/16 20:05:31;;;;;;;20.50;18.40;;;27.00;55.00;;;;;;4909979;56;20963;-29
2022/08/16 20:10:32;;;;;;;20.83;18.60;;;27.00;55.00;;;;;;4942887;52;21425;-29
2022/08/16 20:15:33;;;;;;;20.75;18.52;;;27.00;55.10;;;;;;4911228;52;21043;-36
2022/08/16 20:20:34;;;;;;;20.10;18.00;;;27.00;55.10;;;;;;4931654;52;20991;-32
2022/08/16 20:25:35;;;;;;;19.02;16.92;;;27.00;55.10;;;;;;5005257;52;21007;-34
2022/08/16 20:30:36;;;;;;;19.23;17.23;;;27.00;55.20;;;;;;4923852;52;20988;-31
2022/08/16 20:35:36;;;;;;;19.27;17.08;;;27.00;55.20;;;;;;4941120;52;21011;-26
2022/08/16 20:40:37;;;;;;;18.52;16.52;;;27.00;55.20;;;;;;4914665;52;21611;-28
2022/08/16 20:45:43;;;;;;;19.05;16.80;;;27.00;55.30;;;;;;4941922;52;20976;-32
2022/08/16 20:50:44;;;;;;;18.48;16.50;;;27.00;55.30;;;;;;4910248;56;21323;-26
2022/08/16 20:55:44;;;;;;;17.00;15.30;;;26.90;55.30;;;;;;4910623;56;21456;-26
2022/08/16 21:00:48;;;;;;;18.85;16.27;;;26.90;55.30;;;;;;4916310;52;21046;-26
2022/08/16 21:05:49;;;;;;;17.92;15.98;;;27.00;55.40;;;;;;4919684;52;21604;-28
2022/08/16 21:10:50;;;;;;;17.70;15.90;;;27.00;55.50;;;;;;4953949;52;20988;-27
2022/08/16 21:15:51;;;;;;;17.08;15.13;;;27.00;55.50;;;;;;4929616;52;21003;-31
2022/08/16 21:20:52;;;;;;;16.80;15.10;;;27.00;55.50;;;;;;4945373;52;21509;-30
2022/08/16 21:25:53;;;;;;;16.70;15.05;;;27.00;55.50;;;;;;4959693;52;20996;-29
2022/08/16 21:30:54;;;;;;;17.00;14.87;;;27.00;55.60;;;;;;4946981;52;21517;-35
2022/08/16 21:35:55;;;;;;;16.92;14.70;;;27.00;55.60;;;;;;4920314;52;20975;-32
2022/08/16 21:40:55;;;;;;;15.40;13.85;;;26.90;55.60;;;;;;4945018;52;20983;-29
2022/08/16 21:45:56;;;;;;;15.65;13.95;;;26.90;55.60;;;;;;4942047;52;21135;-30
2022/08/16 21:50:57;;;;;;;15.68;14.00;;;26.90;55.60;;;;;;4955208;52;21054;-29
2022/08/16 21:55:59;;;;;;;15.20;13.68;;;26.90;55.60;;;;;;4967103;52;21007;-26
2022/08/16 22:01:01;;;;;;;15.40;13.90;;;26.90;55.70;;;;;;4928987;52;21035;-30
2022/08/16 22:06:02;;;;;;;15.80;13.45;;;26.90;55.70;;;;;;4930417;52;21624;-29
2022/08/16 22:11:03;;;;;;;15.93;14.23;;;26.90;55.70;;;;;;4956981;52;20984;-27
2022/08/16 22:16:04;;;;;;;14.57;13.13;;;26.90;55.80;;;;;;4912018;52;21023;-26
2022/08/16 22:21:05;;;;;;;16.02;14.07;;;26.90;55.80;;;;;;4948934;52;21517;-26
2022/08/16 22:26:06;;;;;;;14.80;13.30;;;26.90;55.80;;;;;;4921830;52;20995;-27
2022/08/16 22:31:07;;;;;;;13.88;12.48;;;26.90;55.80;;;;;;4914036;52;21067;-27
2022/08/16 22:36:08;;;;;;;14.93;13.43;;;26.90;55.80;;;;;;4932141;52;21059;-26
2022/08/16 22:41:09;;;;;;;14.73;13.23;;;26.90;55.80;;;;;;4909741;56;20967;-26
2022/08/16 22:46:10;;;;;;;14.73;13.10;;;26.90;55.90;;;;;;4932649;52;21453;-28
2022/08/16 22:51:11;;;;;;;14.55;13.05;;;26.90;55.90;;;;;;4909563;56;21063;-29
2022/08/16 22:56:14;;;;;;;14.50;12.68;;;26.90;55.90;;;;;;4922616;52;21035;-29
2022/08/16 23:01:17;;;;;;;14.18;12.77;;;26.90;55.90;;;;;;4931695;52;21417;-29
2022/08/16 23:06:18;;;;;;;13.88;12.57;;;26.90;55.90;;;;;;4910302;56;21118;-29
2022/08/16 23:11:22;;;;;;;14.07;12.13;;;26.90;55.90;;;;;;4913837;52;21047;-26
2022/08/16 23:16:28;;;;;;;13.35;11.95;;;26.90;55.90;;;;;;4947489;52;21498;-29
2022/08/16 23:21:30;;;;;;;13.43;12.10;;;26.90;55.90;;;;;;4938877;52;21034;-30
2022/08/16 23:26:31;;;;;;;13.43;12.02;;;26.90;55.90;;;;;;4939300;52;21483;-26
2022/08/16 23:31:33;;;;;;;12.93;11.63;;;26.90;55.90;;;;;;4939456;52;21465;-27
2022/08/16 23:36:34;;;;;;;12.73;11.30;;;26.90;56.00;;;;;;4911086;52;21501;-26
2022/08/16 23:41:35;;;;;;;12.32;11.02;;;26.90;55.90;;;;;;4961881;52;20988;-27
2022/08/16 23:46:35;;;;;;;13.43;12.02;;;26.90;55.90;;;;;;4910261;56;20979;-26
2022/08/16 23:51:36;;;;;;;13.07;11.77;;;26.90;56.00;;;;;;4911923;52;21019;-29
2022/08/16 23:56:37;;;;;;;12.23;11.02;;;26.90;56.00;;;;;;4912057;52;21043;-29
